Time;durP1;ratioP1;P1;durP2;ratioP2;P2;SDS_P1;SDS_P2;PMS_P1;PMS_P2;Temp;Humidity;BMP_temperature;BMP_pressure;BME280_temperature;BME280_humidity;BME280_pressure;Samples;Min_cycle;Max_cycle;Signal;HPM_P1;HPM_P2
2023/10/06 14:18:42;;;;;;;0.15;0.15;;;;;;;;;;6133280;22;1269458;-76
2023/10/06 14:21:11;;;;;;;0.20;0.20;;;;;;;;;;6145839;23;20057;-79
2023/10/06 14:23:47;;;;;;;0.93;0.50;;;;;;;;;;6148879;23;20097;-75
2023/10/06 14:26:13;;;;;;;1.02;0.88;;;;;;;;;;6151035;23;20422;-78
2023/10/06 14:28:40;;;;;;;0.10;0.10;;;;;;;;;;6150002;23;20033;-78
2023/10/06 14:31:16;;;;;;;0.85;0.65;;;;;;;;;;6150505;23;20114;-77
2023/10/06 14:33:57;;;;;;;0.28;0.20;;;;;;;;;;6150908;23;20108;-75
2023/10/06 14:36:28;;;;;;;0.38;0.25;;;;;;;;;;6150229;23;20490;-77
2023/10/06 14:47:09;;;;;;;0.20;0.20;;;;;;;;;;6152095;23;20527;-76
2023/10/06 14:49:39;;;;;;;0.20;0.20;;;;;;;;;;6147931;23;20624;-77
2023/10/06 14:52:08;;;;;;;0.38;0.30;;;;;;;;;;6149272;23;20033;-79
2023/10/06 14:54:34;;;;;;;0.10;0.10;;;;;;;;;;6150900;23;20030;-76
2023/10/06 14:57:02;;;;;;;1.45;0.63;;;;;;;;;;6148899;23;20060;-76
2023/10/06 14:59:32;;;;;;;0.13;0.13;;;;;;;;;;6150352;23;20026;-76
2023/10/06 15:02:03;;;;;;;1.20;0.40;;;;;;;;;;6149983;23;20057;-74
2023/10/06 15:04:30;;;;;;;0.10;0.10;;;;;;;;;;6149101;23;20133;-76
2023/10/06 15:06:56;;;;;;;0.20;0.20;;;;;;;;;;6150073;23;20073;-76
2023/10/06 15:09:23;;;;;;;0.52;0.45;;;;;;;;;;6150817;23;20026;-79
2023/10/06 15:11:52;;;;;;;0.40;0.40;;;;;;;;;;6150171;23;20026;-79
2023/10/06 15:14:24;;;;;;;0.30;0.30;;;;;;;;;;6149118;23;20053;-75
2023/10/06 15:16:54;;;;;;;0.73;0.73;;;;;;;;;;6150359;23;20030;-76
2023/10/06 15:19:24;;;;;;;0.47;0.40;;;;;;;;;;6146691;23;20030;-78
2023/10/06 15:21:52;;;;;;;0.10;0.10;;;;;;;;;;6146669;23;20025;-75
2023/10/06 15:24:18;;;;;;;0.13;0.13;;;;;;;;;;6149632;23;20030;-78
2023/10/06 15:26:45;;;;;;;0.40;0.40;;;;;;;;;;6123831;23;20152;-73
2023/10/06 15:29:12;;;;;;;0.30;0.30;;;;;;;;;;6150813;23;20030;-75
2023/10/06 15:31:38;;;;;;;0.20;0.20;;;;;;;;;;6148543;23;20426;-76
2023/10/06 15:34:05;;;;;;;0.20;0.20;;;;;;;;;;6149495;23;20502;-74
2023/10/06 15:36:31;;;;;;;1.70;0.40;;;;;;;;;;6149814;23;20041;-75
2023/10/06 15:38:58;;;;;;;0.25;0.25;;;;;;;;;;6124461;23;20500;-74
2023/10/06 15:41:26;;;;;;;0.60;0.40;;;;;;;;;;6150651;23;20033;-77
2023/10/06 15:43:54;;;;;;;1.48;1.35;;;;;;;;;;6150480;23;20399;-74
2023/10/06 15:46:20;;;;;;;0.22;0.22;;;;;;;;;;6148750;23;20029;-76
2023/10/06 15:48:48;;;;;;;0.20;0.20;;;;;;;;;;6151144;23;20106;-75
2023/10/06 15:51:18;;;;;;;0.20;0.20;;;;;;;;;;6123091;23;20086;-75
2023/10/06 15:53:45;;;;;;;0.22;0.22;;;;;;;;;;6149925;23;20026;-75
2023/10/06 15:56:14;;;;;;;0.28;0.28;;;;;;;;;;6150342;23;20081;-75
2023/10/06 15:58:41;;;;;;;0.50;0.50;;;;;;;;;;6123805;23;20022;-75
2023/10/06 16:01:08;;;;;;;0.38;0.38;;;;;;;;;;6150336;23;20489;-74
2023/10/06 16:03:35;;;;;;;0.17;0.17;;;;;;;;;;6090254;23;20889;-76
2023/10/06 16:06:02;;;;;;;1.08;0.82;;;;;;;;;;6093515;23;20964;-76
2023/10/06 16:08:28;;;;;;;0.65;0.40;;;;;;;;;;6068939;23;20058;-77
2023/10/06 16:10:58;;;;;;;0.30;0.30;;;;;;;;;;6094847;23;20026;-75
2023/10/06 16:13:25;;;;;;;0.30;0.30;;;;;;;;;;6070083;23;20037;-75
2023/10/06 16:15:51;;;;;;;0.30;0.22;;;;;;;;;;6094618;23;20034;-76
2023/10/06 16:18:37;;;;;;;0.68;0.68;;;;;;;;;;6071619;23;20078;-76
2023/10/06 16:21:11;;;;;;;0.98;0.45;;;;;;;;;;6091838;23;20026;-73
2023/10/06 16:23:41;;;;;;;0.40;0.30;;;;;;;;;;6091611;23;20067;-74
2023/10/06 16:26:09;;;;;;;1.27;0.50;;;;;;;;;;6092405;23;20031;-76
2023/10/06 16:28:37;;;;;;;0.85;0.50;;;;;;;;;;6095555;23;20529;-76
2023/10/06 16:31:03;;;;;;;0.38;0.32;;;;;;;;;;6091495;23;20063;-77
2023/10/06 16:33:30;;;;;;;1.08;0.30;;;;;;;;;;6068723;23;20058;-72
2023/10/06 16:35:57;;;;;;;0.38;0.30;;;;;;;;;;6072926;23;20027;-75
2023/10/06 16:38:24;;;;;;;0.20;0.20;;;;;;;;;;6065336;23;20019;-77
2023/10/06 16:40:51;;;;;;;0.20;0.20;;;;;;;;;;6097237;23;20093;-75
2023/10/06 16:43:18;;;;;;;0.20;0.20;;;;;;;;;;6071317;23;20110;-77
2023/10/06 16:45:44;;;;;;;0.47;0.40;;;;;;;;;;6069188;23;20030;-76
2023/10/06 16:48:11;;;;;;;0.32;0.32;;;;;;;;;;6092483;23;20436;-74
2023/10/06 16:50:41;;;;;;;0.20;0.20;;;;;;;;;;6069545;23;20011;-75
2023/10/06 16:53:10;;;;;;;0.52;0.40;;;;;;;;;;6094595;23;20174;-75
2023/10/06 16:55:37;;;;;;;0.20;0.20;;;;;;;;;;6095716;23;20023;-76
2023/10/06 16:58:05;;;;;;;0.45;0.45;;;;;;;;;;6068106;23;20472;-76
2023/10/06 17:00:38;;;;;;;0.38;0.30;;;;;;;;;;6070550;23;20785;-73
2023/10/06 17:03:05;;;;;;;0.75;0.75;;;;;;;;;;6069877;23;20539;-76
2023/10/06 17:05:31;;;;;;;0.20;0.20;;;;;;;;;;6071263;23;20050;-76
2023/10/06 17:07:58;;;;;;;0.73;0.65;;;;;;;;;;6069683;23;20552;-74
2023/10/06 17:10:27;;;;;;;1.23;0.80;;;;;;;;;;6095604;23;20049;-77
2023/10/06 17:12:54;;;;;;;0.85;0.52;;;;;;;;;;6074418;23;20484;-77
2023/10/06 17:15:21;;;;;;;0.20;0.20;;;;;;;;;;6072844;23;20029;-72
2023/10/06 17:17:48;;;;;;;0.30;0.30;;;;;;;;;;6068814;23;20158;-76
2023/10/06 17:20:15;;;;;;;0.57;0.57;;;;;;;;;;6073537;23;20027;-77
2023/10/06 17:22:41;;;;;;;0.20;0.20;;;;;;;;;;6099371;23;20054;-75
2023/10/06 17:25:09;;;;;;;0.20;0.20;;;;;;;;;;6097588;23;20027;-77
2023/10/06 17:27:38;;;;;;;0.20;0.20;;;;;;;;;;6093486;23;20467;-77
2023/10/06 17:30:07;;;;;;;2.22;0.80;;;;;;;;;;6093763;23;20050;-76
2023/10/06 17:32:34;;;;;;;0.90;0.52;;;;;;;;;;6066443;23;20030;-77
2023/10/06 17:35:01;;;;;;;0.20;0.20;;;;;;;;;;6094303;23;20404;-77
2023/10/06 17:37:33;;;;;;;0.47;0.47;;;;;;;;;;6094740;23;20034;-77
2023/10/06 17:40:00;;;;;;;1.25;0.68;;;;;;;;;;6068438;23;20054;-73
2023/10/06 17:42:33;;;;;;;0.10;0.10;;;;;;;;;;6094555;23;20021;-76
2023/10/06 17:45:02;;;;;;;0.47;0.20;;;;;;;;;;6098204;23;20043;-73
2023/10/06 17:47:29;;;;;;;0.32;0.25;;;;;;;;;;6096296;23;20023;-76
2023/10/06 17:49:58;;;;;;;0.40;0.38;;;;;;;;;;6097162;23;20099;-77
2023/10/06 17:52:25;;;;;;;0.10;0.10;;;;;;;;;;6095466;23;20112;-74
2023/10/06 17:54:57;;;;;;;0.20;0.20;;;;;;;;;;6096005;23;20643;-76
2023/10/06 17:57:24;;;;;;;0.15;0.15;;;;;;;;;;6071873;23;20031;-77
2023/10/06 17:59:51;;;;;;;0.10;0.10;;;;;;;;;;6070217;23;20070;-75
2023/10/06 18:02:18;;;;;;;0.20;0.20;;;;;;;;;;6069546;23;20098;-76
2023/10/06 18:04:48;;;;;;;0.30;0.30;;;;;;;;;;6095864;23;20221;-76
2023/10/06 18:07:15;;;;;;;0.10;0.10;;;;;;;;;;6071252;23;20102;-74
2023/10/06 18:09:44;;;;;;;0.22;0.22;;;;;;;;;;6096798;23;20030;-75
2023/10/06 18:12:19;;;;;;;0.10;0.10;;;;;;;;;;6069555;23;20026;-77
2023/10/06 18:14:49;;;;;;;0.20;0.20;;;;;;;;;;6095558;23;20069;-76
2023/10/06 18:17:15;;;;;;;1.20;0.32;;;;;;;;;;6071304;23;20019;-77
2023/10/06 18:19:42;;;;;;;0.45;0.30;;;;;;;;;;6070437;23;20033;-76
2023/10/06 18:22:08;;;;;;;0.75;0.75;;;;;;;;;;6095570;23;20034;-76
2023/10/06 18:24:35;;;;;;;0.20;0.20;;;;;;;;;;6071746;23;20027;-76
2023/10/06 18:27:01;;;;;;;0.10;0.10;;;;;;;;;;6069544;23;20022;-75
2023/10/06 18:29:31;;;;;;;0.40;0.32;;;;;;;;;;6091917;23;20027;-73
2023/10/06 18:31:58;;;;;;;0.57;0.50;;;;;;;;;;6069966;23;20030;-77
2023/10/06 18:34:25;;;;;;;0.55;0.38;;;;;;;;;;6077889;23;20086;-76
2023/10/06 18:36:52;;;;;;;0.20;0.20;;;;;;;;;;6076223;23;20018;-77
2023/10/06 18:39:21;;;;;;;0.38;0.35;;;;;;;;;;6074377;23;20373;-75
2023/10/06 18:41:49;;;;;;;0.10;0.10;;;;;;;;;;6076760;23;20094;-74
2023/10/06 18:44:17;;;;;;;0.43;0.40;;;;;;;;;;6077658;23;20141;-76
2023/10/06 18:46:46;;;;;;;0.57;0.52;;;;;;;;;;6076771;23;20119;-75
2023/10/06 18:49:14;;;;;;;0.17;0.17;;;;;;;;;;6080102;23;20023;-75
2023/10/06 18:51:44;;;;;;;0.17;0.17;;;;;;;;;;6078195;23;20484;-76
2023/10/06 18:54:11;;;;;;;0.22;0.22;;;;;;;;;;6079367;23;20019;-75
2023/10/06 18:56:38;;;;;;;0.10;0.10;;;;;;;;;;6094275;23;20353;-76
2023/10/06 18:59:05;;;;;;;1.92;0.52;;;;;;;;;;6069136;23;20034;-76
2023/10/06 19:01:34;;;;;;;0.20;0.20;;;;;;;;;;6074266;23;20027;-74
2023/10/06 19:04:09;;;;;;;0.30;0.30;;;;;;;;;;6076424;23;20027;-76
2023/10/06 19:06:37;;;;;;;0.45;0.20;;;;;;;;;;6078993;23;20115;-76
2023/10/06 19:09:09;;;;;;;0.17;0.17;;;;;;;;;;6078661;23;20031;-76
2023/10/06 19:11:36;;;;;;;0.20;0.15;;;;;;;;;;6099636;23;20027;-79
2023/10/06 19:14:02;;;;;;;1.75;0.43;;;;;;;;;;6093930;23;20034;-76
2023/10/06 19:16:29;;;;;;;0.52;0.50;;;;;;;;;;6067577;23;20041;-75
2023/10/06 19:18:58;;;;;;;0.10;0.10;;;;;;;;;;6092688;23;20464;-76
2023/10/06 19:21:24;;;;;;;0.17;0.17;;;;;;;;;;6092778;23;20026;-76
2023/10/06 19:23:51;;;;;;;2.60;0.28;;;;;;;;;;6067833;23;20876;-76
2023/10/06 19:26:19;;;;;;;0.10;0.10;;;;;;;;;;6065888;23;20031;-75
2023/10/06 19:28:46;;;;;;;0.20;0.20;;;;;;;;;;6069985;23;20126;-76
2023/10/06 19:31:13;;;;;;;2.05;1.95;;;;;;;;;;6069510;23;20034;-74
2023/10/06 19:33:50;;;;;;;0.20;0.20;;;;;;;;;;6094980;23;20114;-73
2023/10/06 19:36:19;;;;;;;0.47;0.15;;;;;;;;;;6096529;23;20031;-76
2023/10/06 19:38:47;;;;;;;0.10;0.10;;;;;;;;;;6096143;23;20030;-74
2023/10/06 19:41:14;;;;;;;0.10;0.10;;;;;;;;;;6069459;23;20031;-76
2023/10/06 19:43:41;;;;;;;0.25;0.25;;;;;;;;;;6095314;23;20087;-75
2023/10/06 19:46:11;;;;;;;6.22;0.93;;;;;;;;;;6071927;23;20023;-76
2023/10/06 19:48:38;;;;;;;0.10;0.10;;;;;;;;;;6070121;23;20058;-76
2023/10/06 19:51:08;;;;;;;0.28;0.28;;;;;;;;;;6071752;23;20235;-75
2023/10/06 19:53:35;;;;;;;0.10;0.10;;;;;;;;;;6093836;23;20034;-76
2023/10/06 19:56:03;;;;;;;0.17;0.15;;;;;;;;;;6069918;23;20087;-76
2023/10/06 19:58:30;;;;;;;0.10;0.10;;;;;;;;;;6095922;23;20083;-74
2023/10/06 20:00:57;;;;;;;0.17;0.17;;;;;;;;;;6098261;23;20057;-76
2023/10/06 20:03:25;;;;;;;0.17;0.17;;;;;;;;;;6070767;23;20011;-76
2023/10/06 20:05:53;;;;;;;0.20;0.20;;;;;;;;;;6071661;23;20023;-76
2023/10/06 20:08:20;;;;;;;0.10;0.10;;;;;;;;;;6071982;23;20526;-76
2023/10/06 20:10:50;;;;;;;0.13;0.13;;;;;;;;;;6068514;23;20667;-76
2023/10/06 20:13:17;;;;;;;0.10;0.10;;;;;;;;;;6098059;23;20454;-76
2023/10/06 20:15:43;;;;;;;0.38;0.38;;;;;;;;;;6098717;23;20026;-76
2023/10/06 20:18:11;;;;;;;0.38;0.32;;;;;;;;;;6072260;23;20033;-76
2023/10/06 20:20:40;;;;;;;0.10;0.10;;;;;;;;;;6099251;23;20346;-76
2023/10/06 20:23:07;;;;;;;0.20;0.20;;;;;;;;;;6072779;23;20031;-76
2023/10/06 20:25:34;;;;;;;0.15;0.15;;;;;;;;;;6072562;23;20034;-76
2023/10/06 20:28:02;;;;;;;0.22;0.22;;;;;;;;;;6099076;23;20040;-74
2023/10/06 20:30:29;;;;;;;0.20;0.20;;;;;;;;;;6097345;23;20067;-75
2023/10/06 20:32:56;;;;;;;3.13;1.02;;;;;;;;;;6096561;23;20066;-75
2023/10/06 20:35:26;;;;;;;0.47;0.47;;;;;;;;;;6073083;23;20031;-76
2023/10/06 20:37:53;;;;;;;0.10;0.10;;;;;;;;;;6097825;23;20065;-76
2023/10/06 20:40:27;;;;;;;0.20;0.20;;;;;;;;;;6071362;23;20022;-76
2023/10/06 20:42:55;;;;;;;0.13;0.13;;;;;;;;;;6072640;23;20054;-75
2023/10/06 20:45:28;;;;;;;0.10;0.10;;;;;;;;;;6074415;23;20102;-75
2023/10/06 20:47:55;;;;;;;0.10;0.10;;;;;;;;;;6072046;23;20488;-76
2023/10/06 20:50:26;;;;;;;0.65;0.65;;;;;;;;;;6100095;23;20627;-75
2023/10/06 20:52:53;;;;;;;0.17;0.17;;;;;;;;;;6074717;23;20023;-73
2023/10/06 20:55:20;;;;;;;0.10;0.10;;;;;;;;;;6099806;23;20782;-76
2023/10/06 20:57:48;;;;;;;0.10;0.10;;;;;;;;;;6100634;23;20088;-73
2023/10/06 21:00:14;;;;;;;0.25;0.25;;;;;;;;;;6101371;23;20570;-76
2023/10/06 21:02:45;;;;;;;0.17;0.17;;;;;;;;;;6073826;23;20031;-74
2023/10/06 21:05:12;;;;;;;1.85;0.55;;;;;;;;;;6103200;23;20034;-76
2023/10/06 21:07:39;;;;;;;0.25;0.25;;;;;;;;;;6098947;23;20018;-75
2023/10/06 21:10:07;;;;;;;0.10;0.10;;;;;;;;;;6100668;23;20353;-76
2023/10/06 21:12:34;;;;;;;0.20;0.20;;;;;;;;;;6075730;23;20029;-75
2023/10/06 21:15:01;;;;;;;0.30;0.30;;;;;;;;;;6099940;23;20043;-75
2023/10/06 21:17:27;;;;;;;0.10;0.10;;;;;;;;;;6100209;23;20019;-74
2023/10/06 21:19:54;;;;;;;0.10;0.10;;;;;;;;;;6102983;23;20408;-76
2023/10/06 21:22:21;;;;;;;0.10;0.10;;;;;;;;;;6077111;23;20022;-76
2023/10/06 21:24:48;;;;;;;0.13;0.13;;;;;;;;;;6100328;23;20111;-76
2023/10/06 21:27:14;;;;;;;0.20;0.20;;;;;;;;;;6073419;23;20027;-75
2023/10/06 21:29:41;;;;;;;0.20;0.20;;;;;;;;;;6073972;23;20463;-75
2023/10/06 21:32:09;;;;;;;0.10;0.10;;;;;;;;;;6074573;23;20035;-76
2023/10/06 21:34:35;;;;;;;0.10;0.10;;;;;;;;;;6073934;23;20090;-74
2023/10/06 21:37:02;;;;;;;0.30;0.30;;;;;;;;;;6099290;23;20090;-75
2023/10/06 21:39:29;;;;;;;0.13;0.13;;;;;;;;;;6098886;23;20035;-76
2023/10/06 21:41:56;;;;;;;0.28;0.20;;;;;;;;;;6074689;23;20087;-76
2023/10/06 21:44:22;;;;;;;0.22;0.20;;;;;;;;;;6099243;23;20023;-76
2023/10/06 21:46:48;;;;;;;0.10;0.10;;;;;;;;;;6073991;23;20040;-76
2023/10/06 21:49:15;;;;;;;0.20;0.20;;;;;;;;;;6098631;23;20035;-76
2023/10/06 21:51:42;;;;;;;0.30;0.30;;;;;;;;;;6099140;23;20687;-75
2023/10/06 21:54:09;;;;;;;0.20;0.20;;;;;;;;;;6098494;23;20027;-76
2023/10/06 21:56:36;;;;;;;0.30;0.25;;;;;;;;;;6099710;23;20109;-72
2023/10/06 21:59:03;;;;;;;0.10;0.10;;;;;;;;;;6075643;23;20539;-75
2023/10/06 22:01:30;;;;;;;0.20;0.20;;;;;;;;;;6074400;23;20159;-73
2023/10/06 22:03:56;;;;;;;0.10;0.10;;;;;;;;;;6077696;23;20075;-75
2023/10/06 22:06:23;;;;;;;0.17;0.17;;;;;;;;;;6120700;23;20090;-75
2023/10/06 22:08:49;;;;;;;0.25;0.25;;;;;;;;;;6122597;23;20479;-75
2023/10/06 22:11:17;;;;;;;0.10;0.10;;;;;;;;;;6120016;23;20026;-74
2023/10/06 22:13:44;;;;;;;0.30;0.25;;;;;;;;;;6090862;23;20048;-75
2023/10/06 22:16:12;;;;;;;0.13;0.13;;;;;;;;;;6095357;23;20063;-76
2023/10/06 22:18:39;;;;;;;0.10;0.10;;;;;;;;;;6122136;23;20030;-79
2023/10/06 22:21:16;;;;;;;0.10;0.10;;;;;;;;;;6097205;23;20030;-75
2023/10/06 22:23:42;;;;;;;0.17;0.17;;;;;;;;;;6122537;23;20034;-75
2023/10/06 22:26:11;;;;;;;0.10;0.10;;;;;;;;;;6123669;23;20027;-76
2023/10/06 22:28:38;;;;;;;0.17;0.17;;;;;;;;;;6124178;23;20082;-77
2023/10/06 22:31:06;;;;;;;0.17;0.17;;;;;;;;;;6123433;23;20062;-75
2023/10/06 22:33:33;;;;;;;0.30;0.30;;;;;;;;;;6123263;23;20611;-80
2023/10/06 22:36:00;;;;;;;0.22;0.13;;;;;;;;;;6096153;23;20041;-78
2023/10/06 22:38:26;;;;;;;0.10;0.10;;;;;;;;;;6122978;23;20414;-80
2023/10/06 22:40:52;;;;;;;0.10;0.10;;;;;;;;;;6122089;23;20486;-75
2023/10/06 22:43:19;;;;;;;0.30;0.20;;;;;;;;;;6123987;23;20034;-75
2023/10/06 22:45:46;;;;;;;0.10;0.10;;;;;;;;;;6121701;23;20053;-75
2023/10/06 22:48:12;;;;;;;0.15;0.15;;;;;;;;;;6098253;23;20945;-75
2023/10/06 22:50:39;;;;;;;0.15;0.15;;;;;;;;;;6124295;23;20087;-75
2023/10/06 22:53:06;;;;;;;0.65;0.32;;;;;;;;;;6097920;23;20026;-75
2023/10/06 22:55:35;;;;;;;0.10;0.10;;;;;;;;;;6121388;23;20431;-80
2023/10/06 22:58:02;;;;;;;0.63;0.63;;;;;;;;;;6123876;23;20026;-75
2023/10/06 23:00:29;;;;;;;0.10;0.10;;;;;;;;;;6123370;23;20371;-75
2023/10/06 23:02:56;;;;;;;0.55;0.55;;;;;;;;;;6123996;23;20151;-78
2023/10/06 23:05:24;;;;;;;0.13;0.13;;;;;;;;;;6121976;23;20108;-77
2023/10/06 23:07:51;;;;;;;0.68;0.65;;;;;;;;;;6098489;23;20066;-75
2023/10/06 23:10:21;;;;;;;0.10;0.10;;;;;;;;;;6122732;23;20034;-77
2023/10/06 23:12:52;;;;;;;0.20;0.20;;;;;;;;;;6123370;23;20031;-76
2023/10/06 23:15:22;;;;;;;0.45;0.43;;;;;;;;;;6121779;23;20491;-80
2023/10/06 23:17:49;;;;;;;0.50;0.32;;;;;;;;;;6123375;23;20406;-77
2023/10/06 23:22:57;;;;;;;0.20;0.20;;;;;;;;;;6122805;23;20038;-79
2023/10/06 23:25:46;;;;;;;3.13;1.20;;;;;;;;;;6097543;23;20026;-79
2023/10/06 23:28:13;;;;;;;0.20;0.20;;;;;;;;;;6120944;23;20022;-76
2023/10/06 23:30:40;;;;;;;0.10;0.10;;;;;;;;;;6123932;23;20098;-76
2023/10/06 23:33:07;;;;;;;0.10;0.10;;;;;;;;;;6096907;23;20037;-78
2023/10/06 23:35:34;;;;;;;0.10;0.10;;;;;;;;;;6123433;23;20090;-76
2023/10/06 23:38:06;;;;;;;0.10;0.10;;;;;;;;;;6096844;23;20061;-75
2023/10/06 23:40:34;;;;;;;0.30;0.30;;;;;;;;;;6124103;23;20086;-79
2023/10/06 23:43:00;;;;;;;0.10;0.10;;;;;;;;;;6096065;23;20543;-76
2023/10/06 23:45:30;;;;;;;0.10;0.10;;;;;;;;;;6123777;23;20367;-77
2023/10/06 23:47:58;;;;;;;0.10;0.10;;;;;;;;;;6122944;23;20027;-80
2023/10/06 23:50:28;;;;;;;0.40;0.30;;;;;;;;;;6098204;23;20479;-76
2023/10/06 23:52:59;;;;;;;0.10;0.10;;;;;;;;;;6123584;23;20470;-76
2023/10/06 23:55:27;;;;;;;2.40;0.60;;;;;;;;;;6123394;23;20030;-76
2023/10/06 23:57:54;;;;;;;0.15;0.15;;;;;;;;;;6121661;23;20034;-79
